createdAt,value
2022-10-15T07:27:23.984Z,14.70
2022-10-15T07:29:52.090Z,14.70
2022-10-15T07:32:20.463Z,14.70
2022-10-15T07:34:48.719Z,14.80
2022-10-15T07:37:16.815Z,14.90
2022-10-15T07:39:44.786Z,15.00
2022-10-15T07:44:47.067Z,15.00
2022-10-15T07:47:15.255Z,15.00
2022-10-15T07:49:43.221Z,15.10
2022-10-15T07:52:11.438Z,15.20
2022-10-15T07:54:39.739Z,15.20
2022-10-15T07:57:07.984Z,15.20
2022-10-15T07:59:36.493Z,15.20
2022-10-15T08:02:05.901Z,15.30
2022-10-15T08:04:35.172Z,15.40
2022-10-15T08:07:05.739Z,15.40
2022-10-15T08:09:36.076Z,15.40
2022-10-15T08:12:06.806Z,15.50
2022-10-15T08:14:34.856Z,15.50
2022-10-15T08:17:03.328Z,15.60
2022-10-15T08:19:32.960Z,15.50
2022-10-15T08:22:01.197Z,15.60
2022-10-15T08:24:30.193Z,15.60
2022-10-15T08:26:58.633Z,15.60
2022-10-15T08:29:26.600Z,15.60
2022-10-15T08:31:54.586Z,15.60
2022-10-15T08:34:22.625Z,15.70
2022-10-15T08:36:52.137Z,15.70
2022-10-15T08:39:20.112Z,15.80
2022-10-15T08:41:51.200Z,15.80
2022-10-15T08:44:26.355Z,15.80
2022-10-15T08:47:00.392Z,15.90
2022-10-15T08:49:45.747Z,15.90
2022-10-15T08:52:21.345Z,16.00
2022-10-15T08:54:49.416Z,16.00
2022-10-15T08:57:25.925Z,16.10
2022-10-15T09:00:02.136Z,16.20
2022-10-15T09:02:35.741Z,16.20
2022-10-15T09:05:23.536Z,16.30
2022-10-15T09:07:58.733Z,16.40
2022-10-15T09:10:36.107Z,16.50
2022-10-15T09:13:16.245Z,16.50
2022-10-15T09:16:05.787Z,16.60
2022-10-15T09:18:36.919Z,16.60
2022-10-15T09:21:06.577Z,16.60
2022-10-15T09:23:36.512Z,16.60
2022-10-15T09:26:16.140Z,16.70
2022-10-15T09:28:49.148Z,16.60
2022-10-15T09:31:21.496Z,16.70
2022-10-15T09:33:54.571Z,16.80
2022-10-15T09:36:35.247Z,16.90
2022-10-15T09:39:20.109Z,16.90
2022-10-15T09:41:57.098Z,17.00
2022-10-15T09:44:29.925Z,17.10
2022-10-15T09:46:58.496Z,17.10
2022-10-15T09:49:33.879Z,17.20
2022-10-15T09:52:12.546Z,17.20
2022-10-15T09:54:52.803Z,17.20
2022-10-15T09:57:24.007Z,17.40
2022-10-15T09:59:56.750Z,17.40
2022-10-15T10:02:27.017Z,17.60
2022-10-15T10:04:56.098Z,17.70
2022-10-15T10:07:33.012Z,17.90
2022-10-15T10:10:07.136Z,17.90
2022-10-15T10:12:37.484Z,17.90
2022-10-15T10:15:09.929Z,17.90
2022-10-15T10:17:38.485Z,17.90
2022-10-15T10:20:17.271Z,18.00
2022-10-15T10:22:51.243Z,18.00
2022-10-15T10:25:42.490Z,18.10
2022-10-15T10:28:20.922Z,18.30
2022-10-15T10:31:03.712Z,18.40
2022-10-15T10:33:35.586Z,18.50
2022-10-15T10:36:04.841Z,18.40
2022-10-15T10:38:35.032Z,18.10
2022-10-15T10:41:08.507Z,17.90
2022-10-15T10:43:39.328Z,17.70
2022-10-15T10:46:18.376Z,17.90
2022-10-15T10:48:48.541Z,18.20
2022-10-15T10:51:19.629Z,18.50
2022-10-15T10:53:51.788Z,19.10
2022-10-15T10:56:25.378Z,19.70
2022-10-15T10:59:01.473Z,20.00
2022-10-15T11:01:30.837Z,19.70
2022-10-15T11:03:59.484Z,19.50
2022-10-15T11:06:57.390Z,19.40
2022-10-15T11:09:40.116Z,19.30
2022-10-15T11:12:28.206Z,19.20
2022-10-15T11:14:59.921Z,19.10
2022-10-15T11:17:41.563Z,19.20
2022-10-15T11:20:35.225Z,19.40
2022-10-15T11:23:25.065Z,19.60
2022-10-15T11:26:03.716Z,19.90
2022-10-15T11:28:48.499Z,20.40
2022-10-15T11:31:25.270Z,20.80
2022-10-15T11:34:07.910Z,20.80
2022-10-15T11:36:54.444Z,20.50
2022-10-15T11:39:46.688Z,20.20
2022-10-15T11:42:19.536Z,20.10
2022-10-15T11:45:19.378Z,20.20
2022-10-15T11:47:52.968Z,20.30
2022-10-15T11:50:29.710Z,20.70
2022-10-15T11:53:32.653Z,21.20
2022-10-15T11:56:05.859Z,21.30
2022-10-15T11:58:39.273Z,21.20
2022-10-15T12:01:16.851Z,20.90
2022-10-15T12:03:52.930Z,20.50
2022-10-15T12:06:24.270Z,20.20
2022-10-15T12:08:53.862Z,19.90
2022-10-15T12:11:31.823Z,19.70
2022-10-15T12:14:07.063Z,19.50
2022-10-15T12:16:41.004Z,19.40
2022-10-15T12:19:17.686Z,19.20
2022-10-15T12:22:06.543Z,19.20
2022-10-15T12:24:56.614Z,19.20
2022-10-15T12:27:34.884Z,19.70
2022-10-15T12:30:24.123Z,20.20
2022-10-15T12:32:54.106Z,20.80
2022-10-15T12:35:36.569Z,21.50
2022-10-15T12:38:20.268Z,22.00
2022-10-15T12:40:56.529Z,22.60
2022-10-15T12:43:25.355Z,23.10
2022-10-15T12:45:56.404Z,23.60
2022-10-15T12:48:42.132Z,23.60
2022-10-15T12:51:40.970Z,23.80
2022-10-15T12:54:36.392Z,24.30
2022-10-15T12:57:39.223Z,24.80
2022-10-15T13:00:29.988Z,25.60
2022-10-15T13:03:01.319Z,26.20
2022-10-15T13:05:33.250Z,26.20
2022-10-15T13:08:03.861Z,26.20
2022-10-15T13:10:36.701Z,25.80
2022-10-15T13:13:08.318Z,25.80
2022-10-15T13:15:37.523Z,26.40
2022-10-15T13:18:12.609Z,27.30
2022-10-15T13:20:45.767Z,27.40
2022-10-15T13:23:31.279Z,26.60
2022-10-15T13:26:20.558Z,25.50
2022-10-15T13:28:49.942Z,24.80
2022-10-15T13:31:27.549Z,24.70
2022-10-15T13:34:01.555Z,24.30
2022-10-15T13:36:33.441Z,23.50
2022-10-15T13:39:05.767Z,23.00
2022-10-15T13:41:37.516Z,23.00
2022-10-15T13:44:06.352Z,22.90
2022-10-15T13:46:38.971Z,23.40
2022-10-15T13:49:13.930Z,24.60
2022-10-15T13:51:46.526Z,25.10
2022-10-15T13:54:18.740Z,25.70
2022-10-15T13:56:53.628Z,26.30
2022-10-15T13:59:22.072Z,26.80
2022-10-15T14:01:53.973Z,27.00
2022-10-15T14:04:24.642Z,26.70
2022-10-15T14:07:23.163Z,27.30
2022-10-15T14:09:53.012Z,28.20
2022-10-15T14:12:22.048Z,28.20
2022-10-15T14:14:50.441Z,28.60
2022-10-15T14:17:25.126Z,28.50
2022-10-15T14:20:21.785Z,28.00
2022-10-15T14:22:50.387Z,27.30
2022-10-15T14:25:24.074Z,26.70
2022-10-15T14:27:53.075Z,26.80
2022-10-15T14:30:27.080Z,27.70
2022-10-15T14:32:55.295Z,28.30
2022-10-15T14:35:26.283Z,27.80
2022-10-15T14:38:03.890Z,27.60
2022-10-15T14:40:32.760Z,27.60
2022-10-15T14:43:05.846Z,28.00
2022-10-15T14:45:41.722Z,28.30
2022-10-15T14:48:12.497Z,28.40
2022-10-15T14:50:44.393Z,28.10
2022-10-15T14:53:20.079Z,27.50
2022-10-15T14:55:52.645Z,26.50
2022-10-15T14:58:25.339Z,25.70
2022-10-15T15:00:59.468Z,25.60
2022-10-15T15:03:30.683Z,25.20
2022-10-15T15:06:00.988Z,24.60
2022-10-15T15:08:30.529Z,24.10
2022-10-15T15:11:01.210Z,24.50
2022-10-15T15:13:31.622Z,25.00
2022-10-15T15:15:59.864Z,25.80
2022-10-15T15:18:28.601Z,26.10
2022-10-15T15:21:02.058Z,25.80
2022-10-15T15:23:32.406Z,25.20
2022-10-15T15:26:00.933Z,24.10
2022-10-15T15:28:30.394Z,23.30
2022-10-15T15:31:00.032Z,22.50
2022-10-15T15:33:29.196Z,21.90
2022-10-15T15:36:02.438Z,21.50
2022-10-15T15:38:32.621Z,21.30
2022-10-15T15:41:04.710Z,21.10
2022-10-15T15:43:33.488Z,20.90
2022-10-15T15:46:01.601Z,20.80
2022-10-15T15:48:30.225Z,20.80
2022-10-15T15:51:03.128Z,20.70
2022-10-15T15:53:33.285Z,20.60
2022-10-15T15:56:01.615Z,20.40
2022-10-15T15:58:29.942Z,20.40
2022-10-15T16:00:58.304Z,20.30
2022-10-15T16:03:26.394Z,20.20
2022-10-15T16:05:54.838Z,20.00
2022-10-15T16:08:23.494Z,19.80
